sensor_id;sensor_type;location;lat;lon;timestamp;P1;durP1;ratioP1;P2;durP2;ratioP2
53064;SDS011;38948;48.376;-4.312;2022-11-14T00:00:05;5.15;;;1.63;;
53064;SDS011;38948;48.376;-4.312;2022-11-14T00:02:32;4.60;;;1.73;;
53064;SDS011;38948;48.376;-4.312;2022-11-14T00:04:58;4.30;;;1.80;;
53064;SDS011;38948;48.376;-4.312;2022-11-14T00:07:24;4.18;;;1.60;;
53064;SDS011;38948;48.376;-4.312;2022-11-14T00:09:50;5.70;;;1.83;;
53064;SDS011;38948;48.376;-4.312;2022-11-14T00:12:16;4.65;;;1.63;;
53064;SDS011;38948;48.376;-4.312;2022-11-14T00:14:42;4.18;;;1.73;;
53064;SDS011;38948;48.376;-4.312;2022-11-14T00:17:07;4.22;;;2.10;;
53064;SDS011;38948;48.376;-4.312;2022-11-14T00:19:33;3.83;;;1.40;;
53064;SDS011;38948;48.376;-4.312;2022-11-14T00:21:59;3.60;;;2.40;;
53064;SDS011;38948;48.376;-4.312;2022-11-14T00:24:25;3.97;;;1.38;;
53064;SDS011;38948;48.376;-4.312;2022-11-14T00:26:51;3.75;;;1.42;;
53064;SDS011;38948;48.376;-4.312;2022-11-14T00:29:16;3.83;;;1.73;;
53064;SDS011;38948;48.376;-4.312;2022-11-14T00:31:42;5.57;;;1.85;;
53064;SDS011;38948;48.376;-4.312;2022-11-14T00:34:08;3.38;;;1.40;;
53064;SDS011;38948;48.376;-4.312;2022-11-14T00:36:35;3.15;;;1.65;;
53064;SDS011;38948;48.376;-4.312;2022-11-14T00:39:00;4.85;;;1.60;;
53064;SDS011;38948;48.376;-4.312;2022-11-14T00:41:27;3.40;;;1.48;;
53064;SDS011;38948;48.376;-4.312;2022-11-14T00:43:53;3.53;;;1.55;;
53064;SDS011;38948;48.376;-4.312;2022-11-14T00:46:18;4.40;;;1.98;;
53064;SDS011;38948;48.376;-4.312;2022-11-14T00:48:44;3.22;;;1.48;;
53064;SDS011;38948;48.376;-4.312;2022-11-14T00:51:10;2.28;;;1.48;;
53064;SDS011;38948;48.376;-4.312;2022-11-14T00:53:36;5.60;;;1.50;;
53064;SDS011;38948;48.376;-4.312;2022-11-14T00:56:02;5.35;;;2.35;;
53064;SDS011;38948;48.376;-4.312;2022-11-14T00:58:28;3.00;;;1.45;;
53064;SDS011;38948;48.376;-4.312;2022-11-14T01:00:53;3.58;;;1.40;;
53064;SDS011;38948;48.376;-4.312;2022-11-14T01:03:19;3.55;;;1.70;;
53064;SDS011;38948;48.376;-4.312;2022-11-14T01:05:47;3.17;;;1.30;;
53064;SDS011;38948;48.376;-4.312;2022-11-14T01:08:14;2.97;;;1.30;;
53064;SDS011;38948;48.376;-4.312;2022-11-14T01:10:42;2.67;;;1.70;;
53064;SDS011;38948;48.376;-4.312;2022-11-14T01:13:09;3.08;;;1.50;;
53064;SDS011;38948;48.376;-4.312;2022-11-14T01:15:41;4.90;;;1.67;;
53064;SDS011;38948;48.376;-4.312;2022-11-14T01:18:09;2.55;;;1.35;;
53064;SDS011;38948;48.376;-4.312;2022-11-14T01:20:42;4.28;;;1.60;;
53064;SDS011;38948;48.376;-4.312;2022-11-14T01:23:09;4.00;;;1.90;;
53064;SDS011;38948;48.376;-4.312;2022-11-14T01:25:37;1.77;;;1.25;;
53064;SDS011;38948;48.376;-4.312;2022-11-14T01:28:04;3.53;;;1.30;;
53064;SDS011;38948;48.376;-4.312;2022-11-14T01:30:32;3.80;;;1.50;;
53064;SDS011;38948;48.376;-4.312;2022-11-14T01:32:57;2.90;;;1.30;;
53064;SDS011;38948;48.376;-4.312;2022-11-14T01:35:23;2.15;;;1.10;;
53064;SDS011;38948;48.376;-4.312;2022-11-14T01:37:49;3.70;;;1.33;;
53064;SDS011;38948;48.376;-4.312;2022-11-14T01:40:15;3.80;;;1.92;;
53064;SDS011;38948;48.376;-4.312;2022-11-14T01:42:41;2.90;;;1.60;;
53064;SDS011;38948;48.376;-4.312;2022-11-14T01:48:09;5.13;;;1.63;;
53064;SDS011;38948;48.376;-4.312;2022-11-14T01:50:55;4.40;;;2.10;;
53064;SDS011;38948;48.376;-4.312;2022-11-14T01:53:24;3.22;;;1.33;;
53064;SDS011;38948;48.376;-4.312;2022-11-14T01:55:51;3.95;;;1.73;;
53064;SDS011;38948;48.376;-4.312;2022-11-14T01:58:20;3.40;;;1.63;;
53064;SDS011;38948;48.376;-4.312;2022-11-14T02:00:47;4.57;;;1.80;;
53064;SDS011;38948;48.376;-4.312;2022-11-14T02:03:13;2.40;;;1.23;;
53064;SDS011;38948;48.376;-4.312;2022-11-14T02:05:41;2.33;;;1.33;;
53064;SDS011;38948;48.376;-4.312;2022-11-14T02:08:10;3.58;;;1.35;;
53064;SDS011;38948;48.376;-4.312;2022-11-14T02:10:38;2.97;;;1.50;;
53064;SDS011;38948;48.376;-4.312;2022-11-14T02:13:04;2.53;;;1.15;;
53064;SDS011;38948;48.376;-4.312;2022-11-14T02:15:30;4.25;;;1.50;;
53064;SDS011;38948;48.376;-4.312;2022-11-14T02:17:56;4.18;;;1.50;;
53064;SDS011;38948;48.376;-4.312;2022-11-14T02:20:27;5.00;;;1.80;;
53064;SDS011;38948;48.376;-4.312;2022-11-14T02:22:57;4.05;;;1.45;;
53064;SDS011;38948;48.376;-4.312;2022-11-14T02:25:23;3.38;;;1.58;;
53064;SDS011;38948;48.376;-4.312;2022-11-14T02:27:50;3.13;;;1.30;;
53064;SDS011;38948;48.376;-4.312;2022-11-14T02:30:17;2.83;;;1.38;;
53064;SDS011;38948;48.376;-4.312;2022-11-14T02:32:45;4.10;;;1.42;;
53064;SDS011;38948;48.376;-4.312;2022-11-14T02:35:11;1.85;;;1.15;;
53064;SDS011;38948;48.376;-4.312;2022-11-14T02:37:37;3.45;;;1.30;;
53064;SDS011;38948;48.376;-4.312;2022-11-14T02:40:03;3.67;;;1.35;;
53064;SDS011;38948;48.376;-4.312;2022-11-14T02:42:29;2.67;;;1.40;;
53064;SDS011;38948;48.376;-4.312;2022-11-14T02:44:55;2.72;;;1.40;;
53064;SDS011;38948;48.376;-4.312;2022-11-14T02:47:21;2.55;;;1.58;;
53064;SDS011;38948;48.376;-4.312;2022-11-14T02:49:49;3.38;;;1.33;;
53064;SDS011;38948;48.376;-4.312;2022-11-14T02:52:15;4.45;;;1.30;;
53064;SDS011;38948;48.376;-4.312;2022-11-14T02:54:41;3.05;;;1.25;;
53064;SDS011;38948;48.376;-4.312;2022-11-14T02:57:07;4.18;;;1.50;;
53064;SDS011;38948;48.376;-4.312;2022-11-14T02:59:33;2.95;;;1.17;;
53064;SDS011;38948;48.376;-4.312;2022-11-14T03:01:59;4.68;;;1.73;;
53064;SDS011;38948;48.376;-4.312;2022-11-14T03:04:25;4.57;;;2.03;;
53064;SDS011;38948;48.376;-4.312;2022-11-14T03:06:50;2.83;;;1.30;;
53064;SDS011;38948;48.376;-4.312;2022-11-14T03:09:16;2.40;;;1.52;;
53064;SDS011;38948;48.376;-4.312;2022-11-14T03:11:42;2.67;;;1.27;;
53064;SDS011;38948;48.376;-4.312;2022-11-14T03:14:08;3.83;;;1.60;;
53064;SDS011;38948;48.376;-4.312;2022-11-14T03:16:34;2.78;;;1.45;;
53064;SDS011;38948;48.376;-4.312;2022-11-14T03:18:59;2.17;;;1.30;;
53064;SDS011;38948;48.376;-4.312;2022-11-14T03:21:26;4.03;;;1.50;;
53064;SDS011;38948;48.376;-4.312;2022-11-14T03:23:52;2.33;;;1.40;;
53064;SDS011;38948;48.376;-4.312;2022-11-14T03:26:18;2.80;;;1.50;;
53064;SDS011;38948;48.376;-4.312;2022-11-14T03:28:43;4.28;;;1.50;;
53064;SDS011;38948;48.376;-4.312;2022-11-14T03:31:10;3.70;;;1.58;;
53064;SDS011;38948;48.376;-4.312;2022-11-14T03:33:37;3.53;;;1.70;;
53064;SDS011;38948;48.376;-4.312;2022-11-14T03:36:03;2.78;;;1.35;;
53064;SDS011;38948;48.376;-4.312;2022-11-14T03:38:30;4.22;;;1.38;;
53064;SDS011;38948;48.376;-4.312;2022-11-14T03:40:57;4.43;;;1.55;;
53064;SDS011;38948;48.376;-4.312;2022-11-14T03:43:23;3.50;;;1.50;;
53064;SDS011;38948;48.376;-4.312;2022-11-14T03:45:49;4.15;;;1.55;;
53064;SDS011;38948;48.376;-4.312;2022-11-14T03:48:15;4.20;;;1.48;;
53064;SDS011;38948;48.376;-4.312;2022-11-14T03:50:41;2.35;;;1.50;;
53064;SDS011;38948;48.376;-4.312;2022-11-14T03:53:08;2.25;;;1.45;;
53064;SDS011;38948;48.376;-4.312;2022-11-14T03:55:34;3.38;;;1.30;;
53064;SDS011;38948;48.376;-4.312;2022-11-14T03:58:00;1.38;;;0.98;;
53064;SDS011;38948;48.376;-4.312;2022-11-14T04:00:26;1.55;;;1.10;;
53064;SDS011;38948;48.376;-4.312;2022-11-14T04:02:53;4.70;;;1.38;;
53064;SDS011;38948;48.376;-4.312;2022-11-14T04:05:20;3.65;;;1.38;;
53064;SDS011;38948;48.376;-4.312;2022-11-14T04:07:46;1.88;;;1.10;;
53064;SDS011;38948;48.376;-4.312;2022-11-14T04:10:12;3.55;;;1.30;;
53064;SDS011;38948;48.376;-4.312;2022-11-14T04:12:37;3.45;;;1.58;;
53064;SDS011;38948;48.376;-4.312;2022-11-14T04:15:03;2.78;;;1.00;;
53064;SDS011;38948;48.376;-4.312;2022-11-14T04:17:29;1.92;;;1.00;;
53064;SDS011;38948;48.376;-4.312;2022-11-14T04:19:55;2.75;;;1.00;;
53064;SDS011;38948;48.376;-4.312;2022-11-14T04:22:21;3.33;;;1.63;;
53064;SDS011;38948;48.376;-4.312;2022-11-14T04:24:46;2.80;;;1.23;;
53064;SDS011;38948;48.376;-4.312;2022-11-14T04:27:12;3.67;;;1.27;;
53064;SDS011;38948;48.376;-4.312;2022-11-14T04:29:38;2.25;;;1.30;;
53064;SDS011;38948;48.376;-4.312;2022-11-14T04:32:03;2.00;;;1.15;;
53064;SDS011;38948;48.376;-4.312;2022-11-14T04:34:29;1.17;;;0.90;;
53064;SDS011;38948;48.376;-4.312;2022-11-14T04:36:58;3.13;;;1.20;;
53064;SDS011;38948;48.376;-4.312;2022-11-14T04:39:24;1.92;;;1.00;;
53064;SDS011;38948;48.376;-4.312;2022-11-14T04:41:49;3.13;;;1.33;;
53064;SDS011;38948;48.376;-4.312;2022-11-14T04:44:15;1.65;;;0.98;;
53064;SDS011;38948;48.376;-4.312;2022-11-14T04:46:41;2.00;;;1.33;;
53064;SDS011;38948;48.376;-4.312;2022-11-14T04:49:06;2.88;;;1.30;;
53064;SDS011;38948;48.376;-4.312;2022-11-14T04:51:32;2.78;;;1.13;;
53064;SDS011;38948;48.376;-4.312;2022-11-14T04:53:58;2.38;;;1.13;;
53064;SDS011;38948;48.376;-4.312;2022-11-14T04:56:23;2.15;;;0.80;;
53064;SDS011;38948;48.376;-4.312;2022-11-14T04:58:49;2.17;;;1.20;;
53064;SDS011;38948;48.376;-4.312;2022-11-14T05:01:15;4.05;;;0.85;;
53064;SDS011;38948;48.376;-4.312;2022-11-14T05:03:41;0.93;;;0.80;;
53064;SDS011;38948;48.376;-4.312;2022-11-14T05:06:07;0.75;;;0.70;;
53064;SDS011;38948;48.376;-4.312;2022-11-14T05:08:33;2.95;;;1.00;;
53064;SDS011;38948;48.376;-4.312;2022-11-14T05:10:59;4.45;;;1.08;;
53064;SDS011;38948;48.376;-4.312;2022-11-14T05:13:25;1.25;;;0.90;;
53064;SDS011;38948;48.376;-4.312;2022-11-14T05:15:51;0.95;;;0.80;;
53064;SDS011;38948;48.376;-4.312;2022-11-14T05:18:16;1.50;;;0.85;;
53064;SDS011;38948;48.376;-4.312;2022-11-14T05:20:42;1.40;;;0.70;;
53064;SDS011;38948;48.376;-4.312;2022-11-14T05:23:17;2.63;;;1.00;;
53064;SDS011;38948;48.376;-4.312;2022-11-14T05:25:45;0.98;;;0.80;;
53064;SDS011;38948;48.376;-4.312;2022-11-14T05:28:11;2.40;;;0.70;;
53064;SDS011;38948;48.376;-4.312;2022-11-14T05:30:37;0.70;;;0.70;;
53064;SDS011;38948;48.376;-4.312;2022-11-14T05:33:03;1.63;;;0.80;;
53064;SDS011;38948;48.376;-4.312;2022-11-14T05:35:29;1.00;;;0.73;;
53064;SDS011;38948;48.376;-4.312;2022-11-14T05:37:54;2.38;;;0.90;;
53064;SDS011;38948;48.376;-4.312;2022-11-14T05:40:20;1.30;;;0.60;;
53064;SDS011;38948;48.376;-4.312;2022-11-14T05:42:46;1.50;;;0.82;;
53064;SDS011;38948;48.376;-4.312;2022-11-14T05:45:11;1.50;;;0.63;;
53064;SDS011;38948;48.376;-4.312;2022-11-14T05:47:37;1.73;;;0.68;;
53064;SDS011;38948;48.376;-4.312;2022-11-14T05:50:03;0.60;;;0.60;;
53064;SDS011;38948;48.376;-4.312;2022-11-14T05:52:29;0.88;;;0.63;;
53064;SDS011;38948;48.376;-4.312;2022-11-14T05:54:55;2.38;;;0.80;;
53064;SDS011;38948;48.376;-4.312;2022-11-14T05:57:21;1.38;;;0.60;;
53064;SDS011;38948;48.376;-4.312;2022-11-14T05:59:46;2.50;;;0.85;;
53064;SDS011;38948;48.376;-4.312;2022-11-14T06:02:12;1.92;;;0.70;;
53064;SDS011;38948;48.376;-4.312;2022-11-14T06:04:38;1.02;;;0.70;;
53064;SDS011;38948;48.376;-4.312;2022-11-14T06:07:04;5.68;;;1.08;;
53064;SDS011;38948;48.376;-4.312;2022-11-14T06:09:29;0.82;;;0.68;;
53064;SDS011;38948;48.376;-4.312;2022-11-14T06:11:55;2.05;;;0.77;;
53064;SDS011;38948;48.376;-4.312;2022-11-14T06:14:21;0.93;;;0.68;;
53064;SDS011;38948;48.376;-4.312;2022-11-14T06:16:47;1.95;;;0.73;;
53064;SDS011;38948;48.376;-4.312;2022-11-14T06:19:12;0.82;;;0.70;;
53064;SDS011;38948;48.376;-4.312;2022-11-14T06:21:38;3.15;;;0.75;;
53064;SDS011;38948;48.376;-4.312;2022-11-14T06:24:04;1.17;;;0.73;;
53064;SDS011;38948;48.376;-4.312;2022-11-14T06:26:30;1.77;;;0.70;;
53064;SDS011;38948;48.376;-4.312;2022-11-14T06:28:56;1.48;;;0.55;;
53064;SDS011;38948;48.376;-4.312;2022-11-14T06:31:23;1.90;;;0.70;;
53064;SDS011;38948;48.376;-4.312;2022-11-14T06:33:50;4.47;;;0.60;;
53064;SDS011;38948;48.376;-4.312;2022-11-14T06:36:16;1.25;;;0.68;;
53064;SDS011;38948;48.376;-4.312;2022-11-14T06:38:42;0.95;;;0.77;;
53064;SDS011;38948;48.376;-4.312;2022-11-14T06:43:36;1.55;;;0.40;;
53064;SDS011;38948;48.376;-4.312;2022-11-14T06:46:05;2.42;;;0.82;;
53064;SDS011;38948;48.376;-4.312;2022-11-14T06:48:32;1.60;;;0.57;;
53064;SDS011;38948;48.376;-4.312;2022-11-14T06:50:59;2.03;;;0.68;;
53064;SDS011;38948;48.376;-4.312;2022-11-14T06:53:26;2.08;;;0.70;;
53064;SDS011;38948;48.376;-4.312;2022-11-14T06:55:54;0.73;;;0.40;;
53064;SDS011;38948;48.376;-4.312;2022-11-14T06:58:28;1.60;;;0.60;;
53064;SDS011;38948;48.376;-4.312;2022-11-14T07:00:55;0.60;;;0.60;;
53064;SDS011;38948;48.376;-4.312;2022-11-14T07:03:21;9.20;;;0.85;;
53064;SDS011;38948;48.376;-4.312;2022-11-14T07:05:47;3.00;;;0.70;;
53064;SDS011;38948;48.376;-4.312;2022-11-14T07:08:13;1.38;;;0.70;;
53064;SDS011;38948;48.376;-4.312;2022-11-14T07:10:39;3.50;;;0.60;;
53064;SDS011;38948;48.376;-4.312;2022-11-14T07:13:05;2.63;;;0.43;;
53064;SDS011;38948;48.376;-4.312;2022-11-14T07:15:33;0.65;;;0.40;;
53064;SDS011;38948;48.376;-4.312;2022-11-14T07:17:59;0.75;;;0.70;;
53064;SDS011;38948;48.376;-4.312;2022-11-14T07:20:24;1.83;;;0.55;;
53064;SDS011;38948;48.376;-4.312;2022-11-14T07:22:50;1.23;;;0.70;;
53064;SDS011;38948;48.376;-4.312;2022-11-14T07:25:16;1.33;;;0.47;;
53064;SDS011;38948;48.376;-4.312;2022-11-14T07:27:42;1.27;;;0.50;;
53064;SDS011;38948;48.376;-4.312;2022-11-14T07:30:08;1.45;;;0.30;;
53064;SDS011;38948;48.376;-4.312;2022-11-14T07:32:34;1.88;;;0.55;;
53064;SDS011;38948;48.376;-4.312;2022-11-14T07:34:59;2.92;;;0.55;;
53064;SDS011;38948;48.376;-4.312;2022-11-14T07:37:25;0.85;;;0.28;;
53064;SDS011;38948;48.376;-4.312;2022-11-14T07:39:51;1.58;;;0.40;;
53064;SDS011;38948;48.376;-4.312;2022-11-14T07:42:16;0.70;;;0.40;;
53064;SDS011;38948;48.376;-4.312;2022-11-14T07:44:42;1.08;;;0.45;;
53064;SDS011;38948;48.376;-4.312;2022-11-14T07:47:08;2.17;;;0.40;;
53064;SDS011;38948;48.376;-4.312;2022-11-14T07:49:34;1.88;;;0.50;;
53064;SDS011;38948;48.376;-4.312;2022-11-14T07:51:59;2.10;;;0.90;;
53064;SDS011;38948;48.376;-4.312;2022-11-14T07:54:25;0.52;;;0.40;;
53064;SDS011;38948;48.376;-4.312;2022-11-14T07:56:51;1.27;;;0.50;;
53064;SDS011;38948;48.376;-4.312;2022-11-14T07:59:16;0.63;;;0.38;;
53064;SDS011;38948;48.376;-4.312;2022-11-14T08:01:42;0.88;;;0.40;;
53064;SDS011;38948;48.376;-4.312;2022-11-14T08:04:08;0.75;;;0.50;;
53064;SDS011;38948;48.376;-4.312;2022-11-14T08:06:34;0.32;;;0.20;;
53064;SDS011;38948;48.376;-4.312;2022-11-14T08:08:59;1.08;;;0.40;;
53064;SDS011;38948;48.376;-4.312;2022-11-14T08:11:25;2.92;;;0.50;;
53064;SDS011;38948;48.376;-4.312;2022-11-14T08:14:09;2.22;;;0.55;;
53064;SDS011;38948;48.376;-4.312;2022-11-14T08:16:35;1.23;;;0.60;;
53064;SDS011;38948;48.376;-4.312;2022-11-14T08:19:01;0.77;;;0.30;;
53064;SDS011;38948;48.376;-4.312;2022-11-14T08:21:26;2.35;;;0.70;;
53064;SDS011;38948;48.376;-4.312;2022-11-14T08:23:52;0.52;;;0.25;;
53064;SDS011;38948;48.376;-4.312;2022-11-14T08:26:18;1.05;;;0.35;;
53064;SDS011;38948;48.376;-4.312;2022-11-14T08:28:43;1.38;;;0.45;;
53064;SDS011;38948;48.376;-4.312;2022-11-14T08:31:09;0.85;;;0.30;;
53064;SDS011;38948;48.376;-4.312;2022-11-14T08:33:35;0.45;;;0.30;;
53064;SDS011;38948;48.376;-4.312;2022-11-14T08:36:02;0.40;;;0.40;;
53064;SDS011;38948;48.376;-4.312;2022-11-14T08:38:29;0.45;;;0.20;;
53064;SDS011;38948;48.376;-4.312;2022-11-14T08:40:59;1.90;;;0.38;;
53064;SDS011;38948;48.376;-4.312;2022-11-14T08:43:25;1.15;;;1.05;;
53064;SDS011;38948;48.376;-4.312;2022-11-14T08:45:51;1.08;;;0.35;;
53064;SDS011;38948;48.376;-4.312;2022-11-14T08:48:20;0.95;;;0.40;;
53064;SDS011;38948;48.376;-4.312;2022-11-14T08:50:46;0.65;;;0.40;;
53064;SDS011;38948;48.376;-4.312;2022-11-14T08:53:12;6.82;;;0.85;;
53064;SDS011;38948;48.376;-4.312;2022-11-14T08:55:42;1.23;;;0.40;;
53064;SDS011;38948;48.376;-4.312;2022-11-14T08:58:12;1.17;;;0.32;;
53064;SDS011;38948;48.376;-4.312;2022-11-14T09:00:38;0.30;;;0.30;;
53064;SDS011;38948;48.376;-4.312;2022-11-14T09:03:07;0.35;;;0.22;;
53064;SDS011;38948;48.376;-4.312;2022-11-14T09:05:33;0.68;;;0.32;;
53064;SDS011;38948;48.376;-4.312;2022-11-14T09:08:00;0.65;;;0.30;;
53064;SDS011;38948;48.376;-4.312;2022-11-14T09:10:26;2.92;;;0.28;;
53064;SDS011;38948;48.376;-4.312;2022-11-14T09:12:56;1.27;;;0.40;;
53064;SDS011;38948;48.376;-4.312;2022-11-14T09:15:22;0.75;;;0.30;;
53064;SDS011;38948;48.376;-4.312;2022-11-14T09:17:51;0.20;;;0.10;;
53064;SDS011;38948;48.376;-4.312;2022-11-14T09:20:21;1.08;;;0.47;;
53064;SDS011;38948;48.376;-4.312;2022-11-14T09:22:48;0.63;;;0.30;;
53064;SDS011;38948;48.376;-4.312;2022-11-14T09:25:17;2.42;;;0.55;;
53064;SDS011;38948;48.376;-4.312;2022-11-14T09:27:46;0.30;;;0.20;;
53064;SDS011;38948;48.376;-4.312;2022-11-14T09:30:12;1.25;;;0.40;;
53064;SDS011;38948;48.376;-4.312;2022-11-14T09:32:38;2.47;;;0.82;;
53064;SDS011;38948;48.376;-4.312;2022-11-14T09:35:04;0.88;;;0.40;;
53064;SDS011;38948;48.376;-4.312;2022-11-14T09:37:30;3.80;;;0.45;;
53064;SDS011;38948;48.376;-4.312;2022-11-14T09:39:56;0.25;;;0.15;;
53064;SDS011;38948;48.376;-4.312;2022-11-14T09:45:11;0.40;;;0.25;;
53064;SDS011;38948;48.376;-4.312;2022-11-14T09:47:46;0.65;;;0.17;;
53064;SDS011;38948;48.376;-4.312;2022-11-14T09:50:19;0.47;;;0.22;;
53064;SDS011;38948;48.376;-4.312;2022-11-14T09:52:51;0.93;;;0.50;;
53064;SDS011;38948;48.376;-4.312;2022-11-14T09:55:26;1.67;;;0.40;;
53064;SDS011;38948;48.376;-4.312;2022-11-14T09:57:54;1.23;;;0.70;;
53064;SDS011;38948;48.376;-4.312;2022-11-14T10:00:21;0.63;;;0.30;;
53064;SDS011;38948;48.376;-4.312;2022-11-14T10:05:49;0.65;;;0.30;;
53064;SDS011;38948;48.376;-4.312;2022-11-14T10:19:56;0.85;;;0.30;;
53064;SDS011;38948;48.376;-4.312;2022-11-14T10:36:21;0.10;;;0.10;;
53064;SDS011;38948;48.376;-4.312;2022-11-14T10:42:02;1.30;;;0.25;;
53064;SDS011;38948;48.376;-4.312;2022-11-14T10:44:46;0.32;;;0.17;;
53064;SDS011;38948;48.376;-4.312;2022-11-14T10:47:39;0.73;;;0.30;;
53064;SDS011;38948;48.376;-4.312;2022-11-14T10:50:14;0.55;;;0.25;;
53064;SDS011;38948;48.376;-4.312;2022-11-14T10:52:43;0.80;;;0.45;;
53064;SDS011;38948;48.376;-4.312;2022-11-14T10:55:15;0.93;;;0.32;;
53064;SDS011;38948;48.376;-4.312;2022-11-14T10:57:46;2.15;;;0.30;;
53064;SDS011;38948;48.376;-4.312;2022-11-14T11:00:14;0.88;;;0.30;;
53064;SDS011;38948;48.376;-4.312;2022-11-14T11:03:03;0.93;;;0.17;;
53064;SDS011;38948;48.376;-4.312;2022-11-14T11:05:29;1.63;;;0.70;;
53064;SDS011;38948;48.376;-4.312;2022-11-14T11:07:57;1.83;;;0.30;;
53064;SDS011;38948;48.376;-4.312;2022-11-14T11:10:43;1.00;;;0.25;;
53064;SDS011;38948;48.376;-4.312;2022-11-14T11:15:59;0.77;;;0.28;;
53064;SDS011;38948;48.376;-4.312;2022-11-14T11:18:36;0.55;;;0.52;;
53064;SDS011;38948;48.376;-4.312;2022-11-14T11:23:31;0.60;;;0.10;;
53064;SDS011;38948;48.376;-4.312;2022-11-14T11:26:05;0.98;;;0.22;;
53064;SDS011;38948;48.376;-4.312;2022-11-14T11:28:39;1.15;;;0.40;;
53064;SDS011;38948;48.376;-4.312;2022-11-14T11:31:06;0.30;;;0.10;;
53064;SDS011;38948;48.376;-4.312;2022-11-14T11:33:34;0.73;;;0.30;;
53064;SDS011;38948;48.376;-4.312;2022-11-14T11:36:11;1.63;;;0.28;;
53064;SDS011;38948;48.376;-4.312;2022-11-14T11:38:43;1.40;;;0.52;;
53064;SDS011;38948;48.376;-4.312;2022-11-14T11:41:29;0.43;;;0.20;;
53064;SDS011;38948;48.376;-4.312;2022-11-14T11:43:59;2.40;;;0.28;;
53064;SDS011;38948;48.376;-4.312;2022-11-14T11:46:34;2.15;;;0.43;;
53064;SDS011;38948;48.376;-4.312;2022-11-14T11:52:00;2.17;;;0.45;;
53064;SDS011;38948;48.376;-4.312;2022-11-14T11:54:35;1.02;;;0.30;;
53064;SDS011;38948;48.376;-4.312;2022-11-14T11:57:15;0.98;;;0.38;;
53064;SDS011;38948;48.376;-4.312;2022-11-14T11:59:48;2.58;;;0.30;;
53064;SDS011;38948;48.376;-4.312;2022-11-14T12:02:25;2.00;;;0.30;;
53064;SDS011;38948;48.376;-4.312;2022-11-14T12:04:53;1.67;;;0.30;;
53064;SDS011;38948;48.376;-4.312;2022-11-14T12:07:24;2.88;;;0.50;;
53064;SDS011;38948;48.376;-4.312;2022-11-14T12:09:55;1.00;;;0.20;;
53064;SDS011;38948;48.376;-4.312;2022-11-14T12:12:45;1.25;;;0.10;;
53064;SDS011;38948;48.376;-4.312;2022-11-14T12:18:26;0.82;;;0.15;;
53064;SDS011;38948;48.376;-4.312;2022-11-14T12:23:49;0.65;;;0.10;;
53064;SDS011;38948;48.376;-4.312;2022-11-14T12:29:44;1.98;;;0.30;;
53064;SDS011;38948;48.376;-4.312;2022-11-14T12:32:12;0.15;;;0.15;;
53064;SDS011;38948;48.376;-4.312;2022-11-14T12:34:45;1.25;;;0.20;;
53064;SDS011;38948;48.376;-4.312;2022-11-14T12:40:23;0.80;;;0.20;;
53064;SDS011;38948;48.376;-4.312;2022-11-14T12:43:02;1.52;;;0.45;;
53064;SDS011;38948;48.376;-4.312;2022-11-14T12:50:47;2.45;;;0.40;;
53064;SDS011;38948;48.376;-4.312;2022-11-14T13:12:42;2.50;;;0.88;;
53064;SDS011;38948;48.376;-4.312;2022-11-14T13:15:53;1.35;;;0.40;;
53064;SDS011;38948;48.376;-4.312;2022-11-14T13:27:26;0.60;;;0.22;;
53064;SDS011;38948;48.376;-4.312;2022-11-14T13:29:59;2.15;;;0.50;;
53064;SDS011;38948;48.376;-4.312;2022-11-14T13:37:50;0.45;;;0.17;;
53064;SDS011;38948;48.376;-4.312;2022-11-14T13:40:29;1.48;;;0.10;;
53064;SDS011;38948;48.376;-4.312;2022-11-14T13:46:27;0.90;;;0.30;;
53064;SDS011;38948;48.376;-4.312;2022-11-14T13:49:31;0.73;;;0.73;;
53064;SDS011;38948;48.376;-4.312;2022-11-14T13:52:03;3.22;;;0.50;;
53064;SDS011;38948;48.376;-4.312;2022-11-14T13:54:29;3.63;;;0.30;;
53064;SDS011;38948;48.376;-4.312;2022-11-14T13:57:00;3.83;;;1.13;;
53064;SDS011;38948;48.376;-4.312;2022-11-14T14:02:25;0.93;;;0.20;;
53064;SDS011;38948;48.376;-4.312;2022-11-14T14:18:51;0.73;;;0.20;;
53064;SDS011;38948;48.376;-4.312;2022-11-14T14:29:44;0.50;;;0.20;;
53064;SDS011;38948;48.376;-4.312;2022-11-14T14:32:33;0.52;;;0.10;;
53064;SDS011;38948;48.376;-4.312;2022-11-14T14:34:59;0.70;;;0.30;;
53064;SDS011;38948;48.376;-4.312;2022-11-14T14:37:52;3.33;;;0.20;;
53064;SDS011;38948;48.376;-4.312;2022-11-14T14:40:24;0.90;;;0.45;;
53064;SDS011;38948;48.376;-4.312;2022-11-14T14:43:01;0.43;;;0.20;;
53064;SDS011;38948;48.376;-4.312;2022-11-14T14:45:30;0.25;;;0.20;;
53064;SDS011;38948;48.376;-4.312;2022-11-14T14:53:16;0.32;;;0.17;;
53064;SDS011;38948;48.376;-4.312;2022-11-14T14:55:57;0.57;;;0.43;;
53064;SDS011;38948;48.376;-4.312;2022-11-14T14:58:25;1.40;;;0.40;;
53064;SDS011;38948;48.376;-4.312;2022-11-14T15:03:23;0.73;;;0.20;;
53064;SDS011;38948;48.376;-4.312;2022-11-14T15:05:58;0.15;;;0.13;;
53064;SDS011;38948;48.376;-4.312;2022-11-14T15:08:25;1.40;;;0.30;;
53064;SDS011;38948;48.376;-4.312;2022-11-14T15:10:53;1.50;;;0.20;;
53064;SDS011;38948;48.376;-4.312;2022-11-14T15:13:23;1.73;;;0.30;;
53064;SDS011;38948;48.376;-4.312;2022-11-14T15:15:51;1.15;;;0.43;;
53064;SDS011;38948;48.376;-4.312;2022-11-14T15:18:25;0.08;;;0.00;;
53064;SDS011;38948;48.376;-4.312;2022-11-14T15:21:09;0.95;;;0.20;;
53064;SDS011;38948;48.376;-4.312;2022-11-14T15:23:41;0.85;;;0.28;;
53064;SDS011;38948;48.376;-4.312;2022-11-14T15:26:15;0.95;;;0.20;;
53064;SDS011;38948;48.376;-4.312;2022-11-14T15:28:42;0.75;;;0.45;;
53064;SDS011;38948;48.376;-4.312;2022-11-14T15:31:19;0.73;;;0.20;;
53064;SDS011;38948;48.376;-4.312;2022-11-14T15:39:37;1.23;;;0.20;;
53064;SDS011;38948;48.376;-4.312;2022-11-14T15:42:25;0.98;;;0.32;;
53064;SDS011;38948;48.376;-4.312;2022-11-14T15:44:53;0.50;;;0.30;;
53064;SDS011;38948;48.376;-4.312;2022-11-14T15:52:55;0.00;;;0.00;;
53064;SDS011;38948;48.376;-4.312;2022-11-14T15:55:30;0.60;;;0.17;;
53064;SDS011;38948;48.376;-4.312;2022-11-14T15:57:56;0.00;;;0.00;;
53064;SDS011;38948;48.376;-4.312;2022-11-14T16:00:22;0.68;;;0.20;;
53064;SDS011;38948;48.376;-4.312;2022-11-14T16:02:57;1.27;;;0.35;;
53064;SDS011;38948;48.376;-4.312;2022-11-14T16:07:50;1.52;;;0.30;;
53064;SDS011;38948;48.376;-4.312;2022-11-14T16:10:17;0.52;;;0.20;;
53064;SDS011;38948;48.376;-4.312;2022-11-14T16:12:44;1.10;;;0.10;;
53064;SDS011;38948;48.376;-4.312;2022-11-14T16:15:10;0.32;;;0.10;;
53064;SDS011;38948;48.376;-4.312;2022-11-14T16:17:37;1.17;;;0.38;;
53064;SDS011;38948;48.376;-4.312;2022-11-14T16:20:05;0.80;;;0.10;;
53064;SDS011;38948;48.376;-4.312;2022-11-14T16:22:34;1.45;;;0.20;;
53064;SDS011;38948;48.376;-4.312;2022-11-14T16:25:00;1.08;;;0.20;;
53064;SDS011;38948;48.376;-4.312;2022-11-14T16:27:26;1.52;;;0.20;;
53064;SDS011;38948;48.376;-4.312;2022-11-14T16:29:52;1.52;;;0.30;;
53064;SDS011;38948;48.376;-4.312;2022-11-14T16:32:18;2.15;;;0.35;;
53064;SDS011;38948;48.376;-4.312;2022-11-14T16:34:44;0.57;;;0.28;;
53064;SDS011;38948;48.376;-4.312;2022-11-14T16:37:11;0.93;;;0.30;;
53064;SDS011;38948;48.376;-4.312;2022-11-14T16:39:38;2.10;;;0.40;;
53064;SDS011;38948;48.376;-4.312;2022-11-14T16:42:04;0.75;;;0.20;;
53064;SDS011;38948;48.376;-4.312;2022-11-14T16:44:30;1.77;;;0.22;;
53064;SDS011;38948;48.376;-4.312;2022-11-14T16:46:57;0.20;;;0.13;;
53064;SDS011;38948;48.376;-4.312;2022-11-14T16:49:23;1.85;;;0.38;;
53064;SDS011;38948;48.376;-4.312;2022-11-14T16:51:49;0.80;;;0.20;;
53064;SDS011;38948;48.376;-4.312;2022-11-14T16:54:18;2.90;;;0.40;;
53064;SDS011;38948;48.376;-4.312;2022-11-14T16:56:44;1.75;;;0.30;;
53064;SDS011;38948;48.376;-4.312;2022-11-14T16:59:11;2.70;;;0.20;;
53064;SDS011;38948;48.376;-4.312;2022-11-14T17:01:37;2.47;;;0.30;;
53064;SDS011;38948;48.376;-4.312;2022-11-14T17:04:03;0.85;;;0.13;;
53064;SDS011;38948;48.376;-4.312;2022-11-14T17:06:29;1.85;;;0.13;;
53064;SDS011;38948;48.376;-4.312;2022-11-14T17:08:55;0.93;;;0.20;;